Time;durP1;ratioP1;P1;durP2;ratioP2;P2;SDS_P1;SDS_P2;PMS_P1;PMS_P2;Temp;Humidity;BMP_temperature;BMP_pressure;BME280_temperature;BME280_humidity;BME280_pressure;Samples;Min_cycle;Max_cycle;Signal;HPM_P1;HPM_P2
2022/05/01 00:01:33;;;;;;;19.08;14.82;;;;;;;8.77;79.67;102431.38;5003154;28;20037;-64
2022/05/01 00:03:58;;;;;;;18.02;13.93;;;;;;;8.75;79.55;102433.44;5004621;28;20459;-64
2022/05/01 00:06:23;;;;;;;17.52;13.43;;;;;;;8.72;79.70;102433.81;5002365;28;20476;-64
2022/05/01 00:08:48;;;;;;;20.73;13.73;;;;;;;8.70;80.37;102424.91;5003246;28;20049;-63
2022/05/01 00:11:14;;;;;;;20.30;13.93;;;;;;;8.70;80.13;102433.13;5003758;28;20038;-64
2022/05/01 00:13:40;;;;;;;20.02;15.25;;;;;;;8.69;80.85;102434.16;5004768;28;20022;-64
2022/05/01 00:16:06;;;;;;;19.63;14.82;;;;;;;8.70;80.24;102424.06;5005422;28;20159;-64
2022/05/01 00:18:31;;;;;;;20.90;15.40;;;;;;;8.67;79.90;102425.28;5004145;28;20499;-64
2022/05/01 00:20:57;;;;;;;22.05;15.10;;;;;;;8.69;79.92;102422.34;5002736;28;20038;-63
2022/05/01 00:23:22;;;;;;;22.20;15.95;;;;;;;8.71;79.78;102421.13;4985953;28;20125;-64
2022/05/01 00:25:48;;;;;;;20.40;15.50;;;;;;;8.69;79.70;102420.47;5003010;28;20180;-64
2022/05/01 00:28:14;;;;;;;21.17;15.65;;;;;;;8.68;79.15;102418.75;5004690;28;20485;-64
2022/05/01 00:30:40;;;;;;;23.25;15.98;;;;;;;8.71;79.52;102425.75;5002302;28;20033;-64
2022/05/01 00:38:35;;;;;;;22.27;15.65;;;;;;;8.70;80.29;102424.91;5004283;28;20076;-64
2022/05/01 00:41:01;;;;;;;22.80;16.08;;;;;;;8.63;80.28;102415.72;5003779;28;20026;-63
2022/05/01 00:43:27;;;;;;;22.55;15.93;;;;;;;8.60;80.50;102410.59;5002565;28;20046;-64
2022/05/01 00:45:53;;;;;;;21.45;16.77;;;;;;;8.59;81.00;102417.09;5004087;28;20523;-64
2022/05/01 00:48:18;;;;;;;23.88;17.17;;;;;;;8.57;81.39;102419.19;5004424;28;20057;-64
2022/05/01 00:50:44;;;;;;;24.60;16.98;;;;;;;8.56;81.37;102411.97;5003106;28;20378;-64
2022/05/01 00:53:11;;;;;;;27.17;17.70;;;;;;;8.53;81.42;102407.72;5000348;28;20038;-64
2022/05/01 00:55:37;;;;;;;25.63;18.67;;;;;;;8.53;81.62;102402.25;5001413;28;20133;-64
2022/05/01 00:58:05;;;;;;;26.30;18.17;;;;;;;8.56;81.38;102404.59;5002845;28;20043;-64
2022/05/01 01:00:31;;;;;;;27.55;18.65;;;;;;;8.56;81.30;102401.00;4999862;28;20042;-64
2022/05/01 01:02:57;;;;;;;24.92;18.30;;;;;;;8.53;81.47;102398.66;4997837;28;20088;-64
2022/05/01 01:05:23;;;;;;;25.73;18.40;;;;;;;8.52;81.75;102399.69;4999946;28;20030;-64
2022/05/01 01:07:48;;;;;;;28.52;19.05;;;;;;;8.53;81.74;102398.66;5001714;28;20389;-64
2022/05/01 01:10:14;;;;;;;27.30;18.27;;;;;;;8.56;82.18;102401.00;5002710;28;20512;-64
2022/05/01 01:12:54;;;;;;;27.95;19.38;;;;;;;8.54;82.20;102401.19;5002716;28;20124;-64
2022/05/01 01:15:24;;;;;;;26.45;18.20;;;;;;;8.55;82.18;102399.31;5003656;28;20045;-64
2022/05/01 01:17:54;;;;;;;30.20;19.13;;;;;;;8.51;82.22;102398.81;5002898;28;20029;-64
2022/05/01 01:20:25;;;;;;;27.70;19.23;;;;;;;8.48;81.92;102401.91;5003079;28;20109;-64
2022/05/01 01:22:53;;;;;;;28.13;18.30;;;;;;;8.46;82.38;102395.75;4999883;28;20033;-64
2022/05/01 01:25:26;;;;;;;29.58;19.90;;;;;;;8.43;82.72;102390.66;5002874;28;20052;-63
2022/05/01 01:27:56;;;;;;;31.10;19.27;;;;;;;8.42;82.71;102399.06;5003720;28;20026;-64
2022/05/01 01:33:06;;;;;;;27.67;18.65;;;;;;;8.36;82.61;102402.44;5002238;28;20057;-64
2022/05/01 01:35:35;;;;;;;31.05;20.35;;;;;;;8.35;82.95;102393.38;5002364;28;20026;-64
2022/05/01 01:38:01;;;;;;;28.92;20.08;;;;;;;8.32;82.82;102405.56;5001893;28;20033;-63
2022/05/01 01:40:48;;;;;;;32.00;20.30;;;;;;;8.36;82.48;102406.06;5002714;28;20030;-63
2022/05/01 01:43:18;;;;;;;29.90;20.35;;;;;;;8.31;83.27;102398.38;4999157;28;20481;-64
2022/05/01 01:45:43;;;;;;;33.08;21.30;;;;;;;8.26;82.59;102398.06;5001754;28;20038;-63
2022/05/01 01:48:10;;;;;;;31.23;20.20;;;;;;;8.24;82.45;102393.78;5004557;28;20084;-64
2022/05/01 01:50:35;;;;;;;31.45;20.73;;;;;;;8.19;82.76;102388.84;5002249;28;20022;-64
2022/05/01 01:53:01;;;;;;;29.27;20.50;;;;;;;8.20;82.83;102396.00;4999889;28;20026;-64
2022/05/01 01:55:26;;;;;;;31.77;20.73;;;;;;;8.20;83.53;102393.28;5002503;28;20109;-64
2022/05/01 01:57:51;;;;;;;31.52;21.25;;;;;;;8.22;83.51;102396.72;5003873;28;20399;-64
2022/05/01 02:00:17;;;;;;;33.83;20.50;;;;;;;8.20;83.11;102384.22;5001013;28;20017;-64
2022/05/01 02:02:42;;;;;;;29.52;20.65;;;;;;;8.20;83.01;102389.69;4999651;28;20050;-64
2022/05/01 02:05:08;;;;;;;31.92;21.98;;;;;;;8.18;82.69;102398.09;4995148;28;20030;-64
2022/05/01 02:07:33;;;;;;;34.83;22.05;;;;;;;8.17;82.48;102392.81;4999453;28;20107;-63
2022/05/01 02:09:59;;;;;;;36.92;23.95;;;;;;;8.14;82.85;102396.72;5001595;28;20101;-64
2022/05/01 02:12:25;;;;;;;32.25;21.73;;;;;;;8.11;82.98;102396.22;5002006;28;20037;-64
2022/05/01 02:14:51;;;;;;;32.78;21.60;;;;;;;8.05;83.04;102389.56;5001530;28;20041;-64
2022/05/01 02:17:16;;;;;;;35.00;22.42;;;;;;;7.99;83.14;102388.41;5001163;28;20115;-64
2022/05/01 02:19:42;;;;;;;36.25;23.38;;;;;;;7.99;83.66;102387.53;5003019;28;20030;-63
2022/05/01 02:22:07;;;;;;;34.17;22.98;;;;;;;7.97;83.61;102382.25;5000622;28;20029;-64
2022/05/01 02:24:33;;;;;;;36.53;22.27;;;;;;;7.96;83.79;102382.44;5000387;28;20381;-64
2022/05/01 02:26:59;;;;;;;37.65;24.52;;;;;;;7.97;83.73;102386.88;5003307;28;20590;-63
2022/05/01 02:29:25;;;;;;;36.47;23.50;;;;;;;7.98;83.35;102386.69;5001556;28;20057;-64
2022/05/01 02:31:53;;;;;;;33.28;22.63;;;;;;;7.98;83.10;102383.13;5001670;28;20430;-64
2022/05/01 02:34:20;;;;;;;33.95;22.95;;;;;;;7.98;83.24;102375.75;5002743;28;20067;-63
2022/05/01 02:36:46;;;;;;;33.53;22.60;;;;;;;7.95;83.53;102373.34;4999322;28;20522;-64
2022/05/01 02:39:11;;;;;;;38.17;23.15;;;;;;;7.91;83.67;102369.28;5001899;28;20022;-64
2022/05/01 02:41:36;;;;;;;33.83;23.08;;;;;;;7.86;83.51;102363.50;5002733;28;20385;-64
2022/05/01 02:44:03;;;;;;;36.50;23.05;;;;;;;7.79;84.03;102365.22;5002339;28;20022;-64
2022/05/01 02:46:28;;;;;;;35.25;22.45;;;;;;;7.73;84.47;102364.03;5001902;28;20064;-64
2022/05/01 02:48:53;;;;;;;35.72;23.33;;;;;;;7.72;84.67;102358.75;5002845;28;20247;-63
2022/05/01 02:51:19;;;;;;;35.60;24.08;;;;;;;7.69;84.88;102365.41;4999098;28;20055;-64
2022/05/01 02:53:44;;;;;;;36.70;23.63;;;;;;;7.67;85.08;102366.63;5031929;22;20518;-64
2022/05/01 02:56:10;;;;;;;34.05;22.65;;;;;;;7.65;84.98;102363.19;5027535;28;20275;-64
2022/05/01 02:58:35;;;;;;;37.58;23.63;;;;;;;7.61;84.86;102365.44;5035248;28;20503;-64
2022/05/01 03:01:00;;;;;;;37.78;22.83;;;;;;;7.57;85.02;102366.81;5029975;28;20043;-64
2022/05/01 03:03:26;;;;;;;34.35;23.30;;;;;;;7.55;85.10;102368.84;5040917;28;20535;-64
2022/05/01 03:05:52;;;;;;;32.95;23.10;;;;;;;7.56;86.03;102362.38;5042444;28;20422;-64
2022/05/01 03:08:18;;;;;;;38.00;24.70;;;;;;;7.56;86.23;102367.84;5041480;28;20071;-64
2022/05/01 03:10:43;;;;;;;36.20;24.02;;;;;;;7.58;86.06;102362.19;5040076;28;20017;-64
2022/05/01 03:13:09;;;;;;;35.22;23.45;;;;;;;7.55;86.13;102357.91;5036159;28;20032;-63
2022/05/01 03:15:34;;;;;;;36.30;23.17;;;;;;;7.54;86.06;102364.41;5038998;28;20017;-64
2022/05/01 03:23:27;;;;;;;35.78;23.73;;;;;;;7.48;86.14;102355.03;5044009;28;20114;-64
2022/05/01 03:25:52;;;;;;;41.17;24.45;;;;;;;7.47;86.31;102352.47;5046108;28;20021;-64
2022/05/01 03:28:18;;;;;;;35.90;22.63;;;;;;;7.47;86.25;102349.72;5043878;28;20025;-64
2022/05/01 03:30:43;;;;;;;36.58;24.85;;;;;;;7.45;86.54;102357.25;5045323;28;20119;-64
2022/05/01 03:33:08;;;;;;;41.33;24.27;;;;;;;7.43;86.80;102342.91;5045392;28;20032;-64
2022/05/01 03:35:38;;;;;;;36.83;24.35;;;;;;;7.42;86.56;102349.41;5042365;28;20033;-64
2022/05/01 03:38:06;;;;;;;38.15;23.90;;;;;;;7.39;86.57;102344.28;5040437;28;20036;-64
2022/05/01 03:40:33;;;;;;;41.17;25.80;;;;;;;7.36;86.49;102337.28;5044598;28;20433;-64
2022/05/01 03:42:58;;;;;;;45.15;25.70;;;;;;;7.27;86.51;102338.31;5045055;28;20490;-64
2022/05/01 03:45:24;;;;;;;40.45;24.85;;;;;;;7.22;86.66;102343.44;5044319;28;20021;-64
2022/05/01 03:47:49;;;;;;;41.15;25.23;;;;;;;7.21;86.84;102339.88;5042429;28;20048;-63
2022/05/01 03:50:14;;;;;;;42.08;25.75;;;;;;;7.17;86.51;102343.97;5041075;28;20041;-64
2022/05/01 03:52:39;;;;;;;40.72;25.15;;;;;;;7.14;87.03;102338.81;5026259;28;20056;-64
2022/05/01 03:55:05;;;;;;;38.17;24.38;;;;;;;7.10;87.17;102340.22;5043757;28;20391;-64
2022/05/01 03:57:32;;;;;;;42.83;25.38;;;;;;;7.07;87.74;102339.69;5044715;28;20025;-64
2022/05/01 03:59:57;;;;;;;38.40;24.17;;;;;;;7.07;87.85;102343.28;5042829;28;20415;-63
2022/05/01 04:02:23;;;;;;;42.97;25.10;;;;;;;7.06;87.81;102340.72;5044541;28;20029;-64
2022/05/01 04:04:48;;;;;;;41.17;25.73;;;;;;;7.06;87.92;102344.31;5027481;28;20104;-63
2022/05/01 04:07:14;;;;;;;41.53;25.75;;;;;;;7.04;87.68;102340.88;5035516;28;20052;-64
2022/05/01 04:09:40;;;;;;;42.30;25.23;;;;;;;6.99;87.56;102335.06;5043303;28;20059;-63
2022/05/01 04:12:06;;;;;;;40.47;24.50;;;;;;;6.93;87.97;102339.34;5044294;28;20554;-63
2022/05/01 04:14:32;;;;;;;44.47;27.33;;;;;;;6.90;88.07;102352.50;5043432;28;20382;-64
2022/05/01 04:16:59;;;;;;;39.22;25.73;;;;;;;6.86;88.43;102346.53;5044449;28;20482;-63
2022/05/01 04:19:25;;;;;;;39.40;24.13;;;;;;;6.83;88.49;102344.13;5043325;28;20383;-64
2022/05/01 04:21:50;;;;;;;44.08;26.38;;;;;;;6.80;88.18;102346.34;5040403;28;20017;-64
2022/05/01 04:24:15;;;;;;;44.13;26.95;;;;;;;6.77;88.54;102350.25;5043988;28;20446;-64
2022/05/01 04:26:40;;;;;;;41.70;25.65;;;;;;;6.69;88.69;102345.66;5044204;28;20036;-64
2022/05/01 04:31:49;;;;;;;45.25;27.10;;;;;;;6.68;89.15;102343.94;5043572;28;20155;-63
2022/05/01 04:34:15;;;;;;;44.00;27.38;;;;;;;6.72;89.05;102353.50;5043184;28;20112;-64
2022/05/01 04:36:41;;;;;;;48.38;27.90;;;;;;;6.71;88.96;102343.59;5042069;28;20132;-63
2022/05/01 04:39:06;;;;;;;49.92;27.92;;;;;;;6.65;88.72;102347.00;5045868;28;20025;-64
2022/05/01 04:41:31;;;;;;;44.38;26.85;;;;;;;6.64;88.99;102344.44;5039641;28;20021;-63
2022/05/01 04:43:57;;;;;;;44.92;27.58;;;;;;;6.61;88.74;102351.09;5041111;28;20433;-63
2022/05/01 04:46:22;;;;;;;42.47;27.00;;;;;;;6.59;88.78;102344.06;5041822;28;20060;-64
2022/05/01 04:48:47;;;;;;;42.53;27.25;;;;;;;6.59;88.74;102347.69;5043303;28;20140;-64
2022/05/01 04:51:12;;;;;;;43.58;26.70;;;;;;;6.59;88.70;102344.06;5036724;28;21022;-64
2022/05/01 04:53:38;;;;;;;45.05;26.77;;;;;;;6.57;89.08;102349.72;5043344;28;20055;-64
2022/05/01 04:58:48;;;;;;;46.55;28.20;;;;;;;6.57;88.89;102357.91;5042396;28;20503;-64
2022/05/01 05:01:14;;;;;;;45.58;28.08;;;;;;;6.57;88.86;102354.31;5043367;28;20108;-63
2022/05/01 05:03:40;;;;;;;48.63;28.98;;;;;;;6.60;88.85;102351.28;5042593;28;20033;-63
2022/05/01 05:06:05;;;;;;;49.97;29.20;;;;;;;6.62;88.85;102360.97;5024639;28;20490;-63
2022/05/01 05:11:14;;;;;;;47.83;29.25;;;;;;;6.68;89.45;102362.19;5042525;28;20548;-64
2022/05/01 05:13:39;;;;;;;53.80;29.40;;;;;;;6.72;89.40;102366.28;5037524;28;20030;-63
2022/05/01 05:16:12;;;;;;;53.05;29.42;;;;;;;6.77;89.32;102361.19;5041811;28;20495;-63
2022/05/01 05:18:39;;;;;;;51.90;30.90;;;;;;;6.84;89.32;102364.09;5042873;28;20047;-63
2022/05/01 05:21:05;;;;;;;48.20;29.60;;;;;;;6.88;89.07;102362.72;5041858;28;20409;-63
2022/05/01 05:23:30;;;;;;;51.78;29.92;;;;;;;6.86;89.02;102359.31;5041589;28;20055;-64
2022/05/01 05:25:55;;;;;;;47.17;30.08;;;;;;;6.88;89.42;102369.03;5042460;28;20487;-63
2022/05/01 05:28:21;;;;;;;52.47;30.88;;;;;;;6.88;89.37;102368.19;5043409;28;20029;-64
2022/05/01 05:30:48;;;;;;;50.80;30.17;;;;;;;6.90;89.44;102369.75;5041395;28;20033;-63
2022/05/01 05:33:14;;;;;;;56.30;31.67;;;;;;;6.96;89.41;102373.66;5042315;28;20029;-64
2022/05/01 05:35:39;;;;;;;58.42;32.92;;;;;;;7.02;89.19;102379.31;5042371;28;20024;-63
2022/05/01 05:38:04;;;;;;;56.35;32.10;;;;;;;7.13;89.27;102375.38;5042126;28;20048;-63
2022/05/01 05:40:30;;;;;;;52.72;34.17;;;;;;;7.20;88.89;102373.69;5041539;28;20017;-63
2022/05/01 05:42:55;;;;;;;60.63;34.08;;;;;;;7.28;88.82;102376.41;5032209;28;20030;-63
2022/05/01 05:45:20;;;;;;;58.80;33.10;;;;;;;7.36;88.66;102380.16;5041472;28;20036;-63
2022/05/01 05:47:45;;;;;;;57.35;33.10;;;;;;;7.41;88.68;102373.16;5043155;28;20365;-63
2022/05/01 05:50:11;;;;;;;60.20;33.55;;;;;;;7.49;88.49;102380.47;5041996;28;20037;-63
2022/05/01 05:52:36;;;;;;;60.95;35.35;;;;;;;7.59;88.07;102378.41;5040826;28;20127;-64
2022/05/01 05:55:01;;;;;;;56.53;34.22;;;;;;;7.66;87.47;102382.19;5040565;28;22150;-63
2022/05/01 05:57:26;;;;;;;60.75;34.38;;;;;;;7.77;87.69;102390.00;5041986;28;20025;-63
2022/05/01 05:59:52;;;;;;;60.92;35.28;;;;;;;7.76;86.62;102387.47;5040726;28;20548;-63
2022/05/01 06:02:17;;;;;;;62.60;35.53;;;;;;;7.83;86.47;102384.88;5041071;28;20048;-64
2022/05/01 06:04:42;;;;;;;63.22;35.80;;;;;;;7.90;86.15;102389.44;5042041;28;20029;-64
2022/05/01 06:07:08;;;;;;;62.00;35.17;;;;;;;7.94;85.72;102385.34;5041373;28;20036;-63
2022/05/01 06:09:33;;;;;;;64.20;36.08;;;;;;;8.02;86.12;102392.69;5041871;28;20479;-63
2022/05/01 06:11:58;;;;;;;68.22;36.92;;;;;;;8.11;85.61;102391.63;5043054;28;20033;-64
2022/05/01 06:14:23;;;;;;;64.03;37.17;;;;;;;8.22;86.17;102391.22;5037056;28;20024;-64
2022/05/01 06:16:49;;;;;;;69.45;36.20;;;;;;;8.28;85.47;102392.41;5040871;28;20336;-63
2022/05/01 06:19:15;;;;;;;63.38;36.78;;;;;;;8.35;85.36;102393.38;5041640;28;20032;-63
2022/05/01 06:21:40;;;;;;;63.10;36.35;;;;;;;8.44;85.10;102391.50;5040824;28;20049;-64
2022/05/01 06:24:07;;;;;;;66.40;38.08;;;;;;;8.54;85.62;102394.88;5040344;28;20057;-63
2022/05/01 06:26:32;;;;;;;69.72;36.70;;;;;;;8.69;85.15;102397.69;5040787;28;20036;-63
2022/05/01 06:28:59;;;;;;;64.60;36.85;;;;;;;8.79;84.35;102401.91;5043264;28;20029;-63
2022/05/01 06:31:25;;;;;;;64.40;37.20;;;;;;;8.95;83.84;102394.63;5039995;28;20368;-64
2022/05/01 06:33:51;;;;;;;66.47;37.10;;;;;;;9.07;82.96;102396.78;5041426;28;20414;-64
2022/05/01 06:36:17;;;;;;;63.13;37.58;;;;;;;9.19;82.40;102391.69;5039398;28;20029;-64
2022/05/01 06:38:43;;;;;;;62.50;35.22;;;;;;;9.30;81.51;102388.50;5041941;28;20412;-64
2022/05/01 06:41:08;;;;;;;59.70;34.88;;;;;;;9.45;81.48;102394.03;5040782;28;20028;-64
2022/05/01 06:43:34;;;;;;;65.65;37.20;;;;;;;9.53;81.31;102388.50;5041478;28;20051;-64
2022/05/01 06:45:59;;;;;;;58.60;35.17;;;;;;;9.62;79.84;102389.25;5041998;28;20054;-64
2022/05/01 06:48:25;;;;;;;65.50;34.70;;;;;;;9.69;79.79;102401.19;5041750;28;20021;-64
2022/05/01 06:50:50;;;;;;;66.38;36.33;;;;;;;9.76;79.97;102399.38;5036593;28;20033;-64
2022/05/01 06:53:16;;;;;;;61.80;34.42;;;;;;;9.89;78.92;102404.25;5042342;28;20052;-64
2022/05/01 06:55:41;;;;;;;57.88;33.28;;;;;;;9.96;78.01;102404.34;5040776;28;20028;-64
2022/05/01 06:58:07;;;;;;;60.25;34.60;;;;;;;9.83;77.70;102396.75;5036424;28;20025;-64
2022/05/01 07:00:32;;;;;;;59.42;35.00;;;;;;;9.82;79.15;102404.13;5041755;28;20029;-64
2022/05/01 07:02:58;;;;;;;64.32;35.90;;;;;;;9.89;78.99;102396.00;5042235;28;20083;-64
2022/05/01 07:05:23;;;;;;;61.60;35.95;;;;;;;10.00;77.58;102392.78;5043209;28;20029;-64
2022/05/01 07:07:50;;;;;;;58.35;34.25;;;;;;;10.07;77.52;102395.63;5037710;28;20017;-65
2022/05/01 07:10:16;;;;;;;64.22;35.00;;;;;;;10.14;77.13;102393.84;5046309;28;20035;-64
2022/05/01 07:12:41;;;;;;;63.45;34.88;;;;;;;10.19;76.09;102399.59;5044142;28;20055;-64
2022/05/01 07:15:07;;;;;;;63.38;35.47;;;;;;;10.38;77.08;102392.69;5045005;28;20029;-64
2022/05/01 07:17:33;;;;;;;62.88;35.28;;;;;;;10.58;76.14;102399.28;5043845;28;21880;-64
2022/05/01 07:19:58;;;;;;;58.55;33.97;;;;;;;10.70;76.09;102391.41;5040729;28;20098;-64
2022/05/01 07:22:24;;;;;;;61.25;36.13;;;;;;;10.85;74.74;102394.97;5042993;28;20024;-64
2022/05/01 07:24:49;;;;;;;59.83;33.30;;;;;;;10.93;73.54;102388.47;5043591;28;20044;-64
2022/05/01 07:27:15;;;;;;;61.33;33.13;;;;;;;11.10;73.08;102397.31;5043085;28;20036;-64
2022/05/01 07:29:40;;;;;;;61.10;33.88;;;;;;;11.28;74.40;102394.09;5043622;28;20044;-64
2022/05/01 07:32:06;;;;;;;54.92;32.80;;;;;;;11.41;72.50;102394.25;5045116;28;20123;-64
2022/05/01 07:34:31;;;;;;;53.08;30.92;;;;;;;11.44;71.65;102399.31;5046216;28;20033;-64
2022/05/01 07:36:56;;;;;;;56.83;31.75;;;;;;;11.49;70.98;102388.56;5043868;28;20056;-64
2022/05/01 07:39:22;;;;;;;51.42;29.98;;;;;;;11.53;70.47;102389.03;5043672;28;20461;-65
2022/05/01 07:41:47;;;;;;;56.95;32.45;;;;;;;11.57;70.32;102393.94;5045543;28;20021;-65
2022/05/01 07:44:13;;;;;;;52.47;31.48;;;;;;;11.58;70.94;102386.53;5036790;28;20635;-64
2022/05/01 07:46:39;;;;;;;51.45;32.03;;;;;;;11.58;71.23;102389.28;5040870;28;20112;-64
2022/05/01 07:49:08;;;;;;;56.38;30.73;;;;;;;11.61;71.59;102399.91;5025901;28;20021;-65
2022/05/01 07:51:34;;;;;;;48.33;29.02;;;;;;;11.58;69.14;102397.53;5033198;28;20032;-65
2022/05/01 07:54:00;;;;;;;48.72;29.13;;;;;;;11.61;69.54;102389.75;5035779;28;20091;-65
2022/05/01 07:56:25;;;;;;;51.00;28.65;;;;;;;11.82;69.84;102391.63;5045344;28;20025;-64
2022/05/01 07:58:51;;;;;;;50.65;30.67;;;;;;;12.00;69.87;102393.00;5044596;28;20034;-64
2022/05/01 08:01:17;;;;;;;52.50;31.95;;;;;;;12.06;68.25;102393.03;5044643;28;20037;-64
2022/05/01 08:06:26;;;;;;;52.65;29.17;;;;;;;12.42;68.87;102392.81;5042404;28;20133;-64
2022/05/01 08:08:52;;;;;;;50.45;27.95;;;;;;;12.62;66.31;102386.50;5045664;28;20096;-65
2022/05/01 08:11:17;;;;;;;48.55;27.38;;;;;;;12.75;64.47;102381.03;5036624;28;20026;-65
2022/05/01 08:13:42;;;;;;;48.15;26.63;;;;;;;12.95;63.95;102390.22;5041594;28;20026;-64
2022/05/01 08:16:08;;;;;;;47.03;28.83;;;;;;;13.29;63.49;102384.78;5045613;28;20044;-65
2022/05/01 08:21:17;;;;;;;40.42;25.10;;;;;;;13.48;61.92;102379.28;5043622;28;20043;-64
2022/05/01 08:23:43;;;;;;;43.28;26.27;;;;;;;13.39;61.21;102379.72;5044917;28;20028;-65
2022/05/01 08:26:10;;;;;;;44.20;27.70;;;;;;;13.34;63.54;102377.59;5036492;28;20041;-64
2022/05/01 08:28:40;;;;;;;42.93;27.07;;;;;;;13.25;61.30;102381.59;5043033;28;20526;-64
2022/05/01 08:31:07;;;;;;;46.60;26.50;;;;;;;13.20;62.52;102379.44;5041132;28;20288;-64
2022/05/01 08:33:33;;;;;;;41.08;24.15;;;;;;;13.20;61.35;102373.91;5042932;28;20021;-64
2022/05/01 08:35:59;;;;;;;38.67;22.23;;;;;;;13.32;60.52;102376.94;5044265;28;20017;-64
2022/05/01 08:38:24;;;;;;;38.05;21.83;;;;;;;13.42;59.04;102374.59;5043087;28;20032;-65
2022/05/01 08:40:51;;;;;;;36.95;21.80;;;;;;;13.40;58.52;102375.88;5044484;28;20033;-64
2022/05/01 08:43:18;;;;;;;35.20;19.70;;;;;;;13.44;58.79;102369.72;5035266;28;20112;-64
2022/05/01 08:45:52;;;;;;;31.77;18.88;;;;;;;13.57;58.15;102370.78;5024490;28;20045;-64
2022/05/01 08:48:39;;;;;;;33.58;18.98;;;;;;;13.85;56.75;102374.16;5044050;28;20033;-65
2022/05/01 08:51:07;;;;;;;28.70;15.20;;;;;;;14.18;55.55;102373.19;5042894;28;20344;-64
2022/05/01 08:53:35;;;;;;;21.13;14.03;;;;;;;14.65;51.77;102368.34;5043947;28;20136;-64
2022/05/01 08:56:01;;;;;;;21.70;12.02;;;;;;;14.76;49.62;102376.81;5044286;28;20295;-64
2022/05/01 08:58:29;;;;;;;17.92;11.55;;;;;;;14.89;49.78;102377.78;5041900;28;20873;-64
2022/05/01 09:00:54;;;;;;;24.77;14.63;;;;;;;15.29;51.36;102378.38;5037921;28;20025;-64
2022/05/01 09:03:20;;;;;;;21.08;12.93;;;;;;;15.36;47.58;102370.88;5043871;28;20040;-65
2022/05/01 09:05:45;;;;;;;24.08;14.70;;;;;;;15.65;46.61;102365.75;5041436;28;20025;-65
2022/05/01 09:08:11;;;;;;;26.85;13.85;;;;;;;15.67;47.29;102363.59;5040288;28;20392;-65
2022/05/01 09:10:42;;;;;;;23.77;13.93;;;;;;;15.77;46.98;102366.69;5044907;28;20059;-65
2022/05/01 09:13:08;;;;;;;26.40;14.82;;;;;;;16.74;45.77;102362.16;5043483;28;20099;-64
2022/05/01 09:15:40;;;;;;;21.50;12.93;;;;;;;17.79;40.73;102367.09;5041794;28;20032;-64
2022/05/01 09:18:10;;;;;;;19.55;11.40;;;;;;;18.35;39.41;102362.78;5035315;28;20037;-65
2022/05/01 09:20:39;;;;;;;21.15;11.80;;;;;;;19.90;37.95;102360.59;5030588;28;20029;-65
2022/05/01 09:23:06;;;;;;;20.27;11.07;;;;;;;21.13;35.87;102362.09;5032314;28;20071;-65
2022/05/01 09:25:32;;;;;;;20.27;11.05;;;;;;;22.17;31.62;102361.53;5039154;28;20037;-65
2022/05/01 09:28:02;;;;;;;14.77;9.73;;;;;;;20.59;32.41;102365.72;5043988;28;20025;-65
2022/05/01 09:30:40;;;;;;;14.73;9.65;;;;;;;19.33;34.65;102373.88;5037164;28;20029;-65
2022/05/01 09:33:16;;;;;;;16.73;8.63;;;;;;;18.12;34.94;102363.66;5041112;28;20033;-65
2022/05/01 09:35:41;;;;;;;11.40;7.43;;;;;;;17.54;35.36;102370.06;5023201;28;20639;-65
2022/05/01 09:38:22;;;;;;;14.38;8.20;;;;;;;17.11;36.38;102375.91;5048307;28;20771;-65
2022/05/01 09:40:49;;;;;;;16.58;10.23;;;;;;;16.76;38.55;102370.22;5046622;28;20116;-65
2022/05/01 09:43:44;;;;;;;14.80;9.88;;;;;;;16.68;40.13;102371.38;5039461;28;20021;-65
2022/05/01 09:46:18;;;;;;;16.48;10.85;;;;;;;17.09;39.15;102367.81;5026413;28;20731;-65
2022/05/01 09:48:56;;;;;;;15.10;10.13;;;;;;;18.99;35.98;102365.44;5057114;28;20062;-66
2022/05/01 09:51:22;;;;;;;14.05;8.68;;;;;;;20.56;32.44;102368.19;5042969;28;20575;-65
2022/05/01 09:53:47;;;;;;;14.25;8.98;;;;;;;21.89;29.37;102362.72;5060437;28;20115;-65
2022/05/01 09:56:13;;;;;;;16.50;11.40;;;;;;;22.01;29.71;102359.75;5037413;28;20035;-66
2022/05/01 09:58:40;;;;;;;14.95;10.93;;;;;;;21.02;32.95;102363.94;5032397;28;20096;-65
2022/05/01 10:01:13;;;;;;;16.30;10.50;;;;;;;20.05;34.68;102359.97;5019657;28;20744;-65
2022/05/01 10:03:41;;;;;;;16.92;10.50;;;;;;;19.12;35.59;102365.16;5018980;28;20022;-66
2022/05/01 10:06:09;;;;;;;17.92;10.80;;;;;;;19.37;37.15;102372.28;5018176;28;20324;-65
2022/05/01 10:08:38;;;;;;;15.48;10.48;;;;;;;20.02;33.10;102362.41;5018707;28;20060;-66
2022/05/01 10:11:03;;;;;;;;;;;;;;;20.52;34.88;102364.22;5052566;28;20040;-65
2022/05/01 10:13:28;;;;;;;15.97;10.57;;;;;;;19.18;33.48;102360.50;5037521;28;20448;-66
2022/05/01 10:15:54;;;;;;;14.70;10.52;;;;;;;18.25;37.80;102367.25;5037851;28;20041;-66
2022/05/01 10:18:22;;;;;;;18.35;11.23;;;;;;;17.58;39.88;102360.16;5020205;28;20087;-66
2022/05/01 10:20:48;;;;;;;14.32;10.52;;;;;;;17.15;37.99;102359.63;5028024;28;20132;-66
2022/05/01 10:23:13;;;;;;;20.63;11.40;;;;;;;16.71;40.25;102361.72;5037842;28;20036;-67
2022/05/01 10:25:52;;;;;;;16.67;10.93;;;;;;;16.37;43.67;102368.78;5038668;28;20112;-66
2022/05/01 10:28:36;;;;;;;17.88;12.18;;;;;;;16.06;44.40;102365.94;5028533;28;20025;-66
2022/05/01 10:34:19;;;;;;;16.65;11.75;;;;;;;15.55;42.28;102353.22;5036444;28;20040;-66
2022/05/01 10:36:59;;;;;;;18.30;11.70;;;;;;;15.62;44.26;102349.56;5016717;28;20056;-65
2022/05/01 10:39:32;;;;;;;20.13;11.68;;;;;;;15.43;42.71;102345.91;5036951;28;20071;-66
2022/05/01 10:41:58;;;;;;;16.92;10.60;;;;;;;15.51;44.46;102343.69;5034850;28;20392;-66
2022/05/01 10:44:30;;;;;;;14.98;10.60;;;;;;;15.39;43.87;102353.78;5016618;28;20038;-66
2022/05/01 10:47:12;;;;;;;14.80;9.93;;;;;;;15.49;43.71;102345.81;5033449;28;20037;-65
2022/05/01 10:49:41;;;;;;;14.38;11.40;;;;;;;15.26;42.22;102351.16;5015315;28;20906;-65
2022/05/01 10:52:23;;;;;;;15.93;11.20;;;;;;;15.33;42.30;102346.41;5004132;28;20152;-65
2022/05/01 10:55:01;;;;;;;15.63;11.38;;;;;;;15.49;44.03;102340.28;5012622;28;20037;-65
2022/05/01 10:57:26;;;;;;;18.08;11.68;;;;;;;15.60;42.79;102329.53;5024390;28;20151;-65
2022/05/01 11:00:05;;;;;;;15.10;10.75;;;;;;;15.78;44.46;102332.38;5024605;28;20049;-65
2022/05/01 11:02:42;;;;;;;15.10;11.27;;;;;;;15.92;41.73;102324.78;5023947;28;20025;-65
2022/05/01 11:05:10;;;;;;;13.63;10.52;;;;;;;16.21;40.32;102325.91;5023904;28;20328;-66
2022/05/01 11:07:37;;;;;;;;;;;;;;;16.62;42.03;102322.38;5009741;28;20125;-66
2022/05/01 11:10:05;;;;;;;16.50;11.05;;;;;;;16.57;39.99;102320.31;5032306;28;19917;-66
2022/05/01 11:12:32;;;;;;;14.38;9.80;;;;;;;16.83;37.76;102312.72;5025718;28;20499;-66
2022/05/01 11:15:10;;;;;;;16.10;11.20;;;;;;;16.62;42.79;102316.81;5025027;28;20372;-66
2022/05/01 11:17:36;;;;;;;15.15;10.85;;;;;;;16.98;40.61;102315.91;5005085;28;20117;-66
2022/05/01 11:20:13;;;;;;;14.50;10.60;;;;;;;16.91;42.59;102315.13;5021271;28;20091;-66
2022/05/01 11:22:39;;;;;;;16.17;10.55;;;;;;;16.96;38.03;102309.72;5025867;28;20037;-66
2022/05/01 11:25:10;;;;;;;32.58;12.55;;;;;;;17.23;39.10;102306.50;5025322;28;20041;-66
2022/05/01 11:27:52;;;;;;;20.25;10.73;;;;;;;17.40;41.16;102303.88;5023888;28;20100;-66
2022/05/01 11:30:27;;;;;;;14.98;11.15;;;;;;;17.46;38.48;102294.59;5019284;28;20435;-66
2022/05/01 11:33:10;;;;;;;13.20;9.07;;;;;;;17.49;37.00;102294.94;5023315;28;20510;-66
2022/05/01 11:36:02;;;;;;;16.30;10.43;;;;;;;16.94;39.53;102289.69;5022131;28;20595;-66
2022/05/01 11:38:33;;;;;;;14.38;10.23;;;;;;;17.07;40.52;102289.47;5021402;28;20045;-66
2022/05/01 11:41:01;;;;;;;15.07;10.02;;;;;;;17.04;35.66;102284.41;5022217;28;20087;-65
2022/05/01 11:43:28;;;;;;;13.52;9.07;;;;;;;16.61;37.18;102290.16;5005631;28;20026;-66
2022/05/01 11:45:55;;;;;;;13.55;9.68;;;;;;;16.61;37.61;102279.91;5003912;28;20088;-66